Airfield :
LOGIN :

Register | Disclaimer

   EN    FR    IT 

 










Legend :    VFR   Marginal VFR   IFR   Intensive IFR   Very Intensive IFR
Visi :
Ceiling :
>= 8 km
>= 3000ft
5 to 8 km
1000 to 3000 ft
1500m to 5 km
500 to 1000 ft
800 to 1500m
200 to 500 ft
< 800m
< 200 ft
Symbols :   Thunderstorms  Fog  Heavy snow  Heavy precipitations  Wind > 20 kt
SIGMETs :     Misc.  Thunderstorms  Icing  Turbulence  Mountain Waves  Volcanic Ashes






- Airport Elevation : 2945 ft
- IATA code : RGS


LEBG - Burgos

CURRENT METAR :
  • 171900Z AUTO VRB02KT 9999 SCT057 20/09 Q1016

EXPIRED METARs :
  • 171830Z AUTO 26006KT 220V300 9999 SCT055 21/09 Q1015
  • 171800Z 26008KT 240V300 9999 FEW057 21/10 Q1015
  • 171730Z 25009KT 9999 FEW057 22/10 Q1015
  • 171700Z 24009KT 210V280 9999 FEW055 22/10 Q1015
  • 171630Z 26010KT 230V290 9999 SCT058 23/10 Q1015

TAF TAF LEBG
Valid from the 17 at 15:00 until the 18 at 15:00 UTC


171400Z 1715/1815 24010KT 9999 FEW040 TX25/1715Z TN08/1805Z
BECMG 1718/1720 02010KT
PROB40
TEMPO 1720/1806 RA BKN006 BKN020
PROB30
TEMPO 1722/1806 4000 BR



MET'MAP, your aeronautical weather chart ! - Copyright ORBIFLY December 2007 - Disclaimer

ORBIFLY MET'MAP TEAM :

Programming & Development : Alexandra Zaïnal
Concept & original design : Baudouin d'Aumeries
Assistance for programming : Marc-Olivier Méhu
Technical & hardware support : Manuel Goepfert

Contact : metmap@orbifly.com




SOURCES & CREDITS :

   NOAA